Terminal Aerodrome Forecast
Issued by NWS Greer, SC

Home | Current Version | Previous Version | Text Only | Print | Product List | Glossary On
Versions: 1 2 3 4 5 6 7 8 9 10 11 12 13 14 15 16 17 18 19 20
000
FTUS42 KGSP 252057 AAC
TAFGSP
TAF AMD
KGSP 252057Z 2521/2618 21007KT 5SM BR BKN005 OVC010
     FM252300 23010KT P6SM BKN035 WS020/24030KT
     FM260700 24012KT P6SM BKN021 WS020/27030KT
     FM261400 27009KT P6SM SCT021=

USA.gov is the U.S. government's official web portal to all federal, state and local government web resources and services.